This is the latest recevied weather packets stored in our database for station/object OZ7MKS. If no packets are shown the sender has not sent any weather packets the latest 10 day(s).
| Time | Temp. | Humidity | Pressure | Rain* | Wind** | Luminosity | Snow |
|---|---|---|---|---|---|---|---|
| 1778354704 | 10.56° C | 73% | 1019.5 hPa | 0 mm | - | - | - |
| 1778349003 | 15° C | 43% | 1018.7 hPa | 0 mm | - | - | - |
| 1778347503 | 15.56° C | 42% | 1018.7 hPa | 0 mm | - | - | - |
| 1778346003 | 16.11° C | 40% | 1018.9 hPa | 0 mm | - | - | - |
| 1778343304 | 17.78° C | 37% | 1019.3 hPa | 0 mm | - | - | - |
| 1778343003 | 17.78° C | 37% | 1019.4 hPa | 0 mm | - | - | - |
| 1778342403 | 17.78° C | 38% | 1019.5 hPa | 0 mm | - | - | - |
| 1778337303 | 18.33° C | 40% | 1020.5 hPa | 0 mm | - | - | - |
| 1778336104 | 18.33° C | 41% | 1020.8 hPa | 0 mm | - | - | - |
| 1778332803 | 18.33° C | 41% | 1021.3 hPa | 0 mm | - | - | - |
| 1778329803 | 18.33° C | 40% | 1021.7 hPa | 0 mm | - | - | - |
| 1778324704 | 17.22° C | 42% | 1022.6 hPa | 0 mm | - | - | - |
| 1778322604 | 16.67° C | 44% | 1023 hPa | 0 mm | - | - | - |
| 1778322304 | 16.67° C | 44% | 1023 hPa | 0 mm | - | - | - |
| 1778321104 | 17.22° C | 43% | 1023.1 hPa | 0 mm | - | - | - |
| 1778320503 | 16.67° C | 40% | 1023.3 hPa | 0 mm | - | - | - |
| 1778319004 | 16.67° C | 39% | 1023.5 hPa | 0 mm | - | - | - |
| 1778318403 | 16.11° C | 39% | 1023.6 hPa | 0 mm | - | - | - |
| 1778316904 | 16.11° C | 43% | 1023.6 hPa | 0 mm | - | - | - |
| 1778316004 | 15.56° C | 50% | 1023.7 hPa | 0 mm | - | - | - |
| 1778315404 | 15° C | 48% | 1023.7 hPa | 0 mm | - | - | - |
| 1778313003 | 14.44° C | 54% | 1023.7 hPa | 0 mm | - | - | - |
| 1778312103 | 13.89° C | 66% | 1023.8 hPa | 0 mm | - | - | - |
| 1778310003 | 12.22° C | 73% | 1023.9 hPa | 0 mm | - | - | - |
| 1778308504 | 11.67° C | 75% | 1024 hPa | 0 mm | - | - | - |
* Rain latest hour (hover to see other rain measurements)
** Current wind speed in m/s (hover to see current wind gust speed)